Terminal Aerodrome Forecast
Issued by NWS

Current Version | Previous Version | Graphics & Text | Print | Product List | Glossary On
Versions: 1 2 3 4 5 6 7 8 9 10 11 12 13 14 15 16 17 18 19 20 21 22 23 24 25 26
000
FTUS41 KILN 280544
TAFLUK
TAF
KLUK 280544Z 2806/2906 19006KT P6SM SCT080 SCT200
     FM281200 21008KT P6SM -SHRA VCTS SCT050CB OVC080
      TEMPO 2812/2815 5SM -SHRA BR OVC050
     FM281800 22010KT 4SM -TSRA BR OVC050CB
     FM282100 25008KT P6SM VCSH OVC050
     FM290000 33005KT P6SM BKN040
     FM290400 VRB03KT 4SM BR BKN025=

USA.gov is the U.S. government's official web portal to all federal, state and local government web resources and services.